Time;durP1;ratioP1;P1;durP2;ratioP2;P2;SDS_P1;SDS_P2;PMS_P1;PMS_P2;Temp;Humidity;BMP_temperature;BMP_pressure;BME280_temperature;BME280_humidity;BME280_pressure;Samples;Min_cycle;Max_cycle;Signal;HPM_P1;HPM_P2
2023/03/04 00:00:24;;;;;;;53.40;16.35;;;;;;;;;;7383327;19;20002;-76
2023/03/04 00:02:49;;;;;;;49.78;17.40;;;;;;;;;;7381142;19;20002;-76
2023/03/04 00:05:14;;;;;;;56.17;17.35;;;;;;;;;;7380060;19;20022;-77
2023/03/04 00:07:40;;;;;;;50.00;17.08;;;;;;;;;;7380146;19;20070;-75
2023/03/04 00:10:06;;;;;;;55.90;18.60;;;;;;;;;;7386812;19;20002;-76
2023/03/04 00:12:31;;;;;;;58.63;19.38;;;;;;;;;;7385932;19;20010;-77
2023/03/04 00:14:56;;;;;;;58.00;17.58;;;;;;;;;;7385414;19;20005;-75
2023/03/04 00:17:22;;;;;;;50.95;17.25;;;;;;;;;;7385143;19;20003;-76
2023/03/04 00:19:48;;;;;;;60.53;18.30;;;;;;;;;;7385324;19;20430;-76
2023/03/04 00:22:14;;;;;;;51.22;16.60;;;;;;;;;;7385831;19;19998;-75
2023/03/04 00:24:39;;;;;;;46.60;16.75;;;;;;;;;;7383802;19;19998;-75
2023/03/04 00:27:04;;;;;;;47.58;16.85;;;;;;;;;;7386026;19;19999;-75
2023/03/04 00:29:30;;;;;;;55.53;16.88;;;;;;;;;;7383607;19;20474;-75
2023/03/04 00:31:55;;;;;;;50.03;16.50;;;;;;;;;;7386499;19;19995;-77
2023/03/04 00:34:20;;;;;;;42.17;14.95;;;;;;;;;;7383694;19;20480;-77
2023/03/04 00:36:46;;;;;;;57.05;16.08;;;;;;;;;;7390456;19;20077;-76
2023/03/04 00:39:12;;;;;;;49.60;16.90;;;;;;;;;;7386618;19;20002;-75
2023/03/04 00:41:38;;;;;;;50.03;17.05;;;;;;;;;;7385199;19;20717;-76
2023/03/04 00:44:04;;;;;;;48.42;15.95;;;;;;;;;;7382039;19;20003;-76
2023/03/04 00:46:29;;;;;;;48.45;17.23;;;;;;;;;;7386712;19;20003;-76
2023/03/04 00:48:55;;;;;;;56.72;15.90;;;;;;;;;;7386032;19;20003;-76
2023/03/04 00:51:20;;;;;;;48.33;16.17;;;;;;;;;;7385892;19;20062;-75
2023/03/04 00:53:46;;;;;;;50.22;16.75;;;;;;;;;;7383482;19;20090;-76
2023/03/04 00:56:11;;;;;;;51.70;17.48;;;;;;;;;;7386451;19;20539;-76
2023/03/04 00:58:38;;;;;;;55.95;16.65;;;;;;;;;;7395881;19;20006;-76
2023/03/04 01:01:03;;;;;;;53.28;16.15;;;;;;;;;;7393334;19;19999;-76
2023/03/04 01:03:31;;;;;;;46.90;15.93;;;;;;;;;;7388341;19;20067;-76
2023/03/04 01:05:57;;;;;;;52.92;16.95;;;;;;;;;;7392817;19;19999;-75
2023/03/04 01:08:22;;;;;;;52.72;18.13;;;;;;;;;;7390975;19;20032;-76
2023/03/04 01:10:48;;;;;;;41.53;14.98;;;;;;;;;;7390926;19;20002;-76
2023/03/04 01:13:13;;;;;;;47.15;16.35;;;;;;;;;;7389807;19;20473;-76
2023/03/04 01:15:38;;;;;;;43.60;15.98;;;;;;;;;;7391499;19;20009;-76
2023/03/04 01:18:04;;;;;;;59.35;16.90;;;;;;;;;;7392237;19;20023;-75
2023/03/04 01:20:30;;;;;;;49.88;15.18;;;;;;;;;;7392634;19;19998;-76
2023/03/04 01:22:55;;;;;;;49.15;15.20;;;;;;;;;;7390188;19;20580;-76
2023/03/04 01:25:20;;;;;;;44.47;15.57;;;;;;;;;;7390463;19;20002;-75
2023/03/04 01:27:46;;;;;;;52.70;16.20;;;;;;;;;;7391196;19;20002;-76
2023/03/04 01:30:11;;;;;;;57.53;15.82;;;;;;;;;;7390249;19;20361;-76
2023/03/04 01:32:37;;;;;;;55.78;17.15;;;;;;;;;;7388679;19;19999;-76
2023/03/04 01:35:02;;;;;;;52.17;14.75;;;;;;;;;;7391738;19;20005;-76
2023/03/04 01:37:28;;;;;;;49.28;14.88;;;;;;;;;;7391534;19;20456;-75
2023/03/04 01:39:53;;;;;;;53.60;14.98;;;;;;;;;;7391709;19;20015;-76
2023/03/04 01:42:20;;;;;;;53.72;18.55;;;;;;;;;;7390248;19;20002;-76
2023/03/04 01:44:46;;;;;;;51.60;16.23;;;;;;;;;;7393060;19;20019;-75
2023/03/04 01:47:12;;;;;;;44.88;16.42;;;;;;;;;;7391583;19;20163;-75
2023/03/04 01:49:38;;;;;;;48.97;15.25;;;;;;;;;;7389228;19;20035;-76
2023/03/04 01:52:03;;;;;;;54.70;15.93;;;;;;;;;;7393117;19;20456;-74
2023/03/04 01:54:28;;;;;;;53.22;15.60;;;;;;;;;;7388849;19;20082;-77
2023/03/04 01:56:56;;;;;;;50.63;15.52;;;;;;;;;;7390727;19;20002;-75
2023/03/04 01:59:29;;;;;;;47.03;15.88;;;;;;;;;;7391451;19;20531;-75
2023/03/04 02:01:57;;;;;;;54.40;16.70;;;;;;;;;;7390805;19;20002;-75
2023/03/04 02:04:25;;;;;;;56.15;17.00;;;;;;;;;;7387591;19;20448;-76
2023/03/04 02:06:51;;;;;;;48.83;15.07;;;;;;;;;;7388023;19;19999;-76
2023/03/04 02:09:17;;;;;;;44.72;15.25;;;;;;;;;;7389098;19;20721;-76
2023/03/04 02:11:44;;;;;;;48.38;15.82;;;;;;;;;;7391266;19;19998;-75
2023/03/04 02:14:11;;;;;;;47.28;15.18;;;;;;;;;;7387915;19;19998;-75
2023/03/04 02:16:37;;;;;;;51.65;15.38;;;;;;;;;;7395132;19;20516;-75
2023/03/04 02:19:10;;;;;;;52.95;15.82;;;;;;;;;;7390158;19;19999;-75
2023/03/04 02:21:36;;;;;;;47.42;15.13;;;;;;;;;;7389483;19;19998;-75
2023/03/04 02:24:18;;;;;;;42.58;13.23;;;;;;;;;;7387682;19;20353;-75
2023/03/04 02:26:45;;;;;;;51.47;14.07;;;;;;;;;;7391016;19;20003;-76
2023/03/04 02:29:13;;;;;;;48.45;13.93;;;;;;;;;;7386865;19;19998;-75
2023/03/04 02:31:43;;;;;;;42.70;15.45;;;;;;;;;;7390359;19;19998;-75
2023/03/04 02:34:17;;;;;;;47.83;14.52;;;;;;;;;;7387346;19;20008;-75
2023/03/04 02:36:44;;;;;;;53.28;16.65;;;;;;;;;;7390540;19;20069;-76
2023/03/04 02:39:33;;;;;;;43.90;14.90;;;;;;;;;;7389747;19;20480;-75
2023/03/04 02:41:59;;;;;;;47.22;14.52;;;;;;;;;;7390924;19;20007;-76
2023/03/04 02:44:27;;;;;;;54.13;15.82;;;;;;;;;;7387168;19;20027;-75
2023/03/04 02:46:53;;;;;;;47.58;16.15;;;;;;;;;;7389438;19;20005;-75
2023/03/04 02:49:19;;;;;;;45.35;13.55;;;;;;;;;;7388079;19;19995;-74
2023/03/04 02:51:45;;;;;;;45.97;15.38;;;;;;;;;;7389753;19;19998;-75
2023/03/04 02:54:18;;;;;;;52.05;15.45;;;;;;;;;;7386078;19;20001;-76
2023/03/04 02:56:52;;;;;;;51.13;14.75;;;;;;;;;;7389332;19;20456;-76
2023/03/04 02:59:18;;;;;;;53.58;15.68;;;;;;;;;;7389110;19;20022;-75
2023/03/04 03:01:44;;;;;;;48.53;16.35;;;;;;;;;;7390125;19;20019;-76
2023/03/04 03:04:09;;;;;;;50.70;17.52;;;;;;;;;;7390847;19;20007;-76
2023/03/04 03:06:35;;;;;;;47.65;15.50;;;;;;;;;;7389711;19;20066;-75
2023/03/04 03:09:00;;;;;;;46.72;16.27;;;;;;;;;;7385114;19;20026;-76
2023/03/04 03:11:26;;;;;;;43.00;15.00;;;;;;;;;;7389634;19;19998;-76
2023/03/04 03:13:51;;;;;;;50.45;15.48;;;;;;;;;;7385914;19;20002;-76
2023/03/04 03:16:16;;;;;;;52.03;17.13;;;;;;;;;;7386850;19;19995;-76
2023/03/04 03:18:42;;;;;;;49.63;16.58;;;;;;;;;;7383794;19;20007;-76
2023/03/04 03:21:07;;;;;;;43.78;14.82;;;;;;;;;;7388099;19;20022;-76
2023/03/04 03:23:33;;;;;;;44.05;13.80;;;;;;;;;;7384429;19;20488;-76
2023/03/04 03:25:59;;;;;;;43.83;14.90;;;;;;;;;;7389318;19;20022;-76
2023/03/04 03:28:24;;;;;;;46.65;14.63;;;;;;;;;;7385132;19;20062;-76
2023/03/04 03:30:50;;;;;;;45.65;13.85;;;;;;;;;;7386498;19;20002;-75
2023/03/04 03:33:15;;;;;;;54.72;17.55;;;;;;;;;;7385576;19;20698;-76
2023/03/04 03:35:40;;;;;;;51.55;15.75;;;;;;;;;;7387961;19;20017;-74
2023/03/04 03:38:06;;;;;;;48.10;15.98;;;;;;;;;;7387319;19;20005;-75
2023/03/04 03:40:31;;;;;;;47.70;16.02;;;;;;;;;;7388432;19;20011;-75
2023/03/04 03:42:57;;;;;;;48.75;14.60;;;;;;;;;;7386042;19;20003;-74
2023/03/04 03:45:22;;;;;;;39.67;13.35;;;;;;;;;;7388444;19;20003;-75
2023/03/04 03:47:47;;;;;;;42.20;15.15;;;;;;;;;;7385166;19;20002;-76
2023/03/04 03:50:13;;;;;;;49.80;17.75;;;;;;;;;;7388494;19;20439;-77
2023/03/04 03:52:38;;;;;;;48.03;16.52;;;;;;;;;;7388624;19;20344;-76
2023/03/04 03:55:04;;;;;;;51.20;15.90;;;;;;;;;;7390969;19;19994;-76
2023/03/04 03:57:29;;;;;;;45.72;15.70;;;;;;;;;;7390158;19;20367;-76
2023/03/04 03:59:55;;;;;;;48.47;16.35;;;;;;;;;;7389801;19;19991;-76
2023/03/04 04:02:21;;;;;;;44.30;15.75;;;;;;;;;;7386716;19;20328;-76
2023/03/04 04:04:46;;;;;;;49.10;16.00;;;;;;;;;;7384435;19;19995;-76
2023/03/04 04:07:12;;;;;;;43.08;14.82;;;;;;;;;;7387419;19;19999;-76
2023/03/04 04:09:37;;;;;;;50.85;15.43;;;;;;;;;;7385531;19;20115;-76
2023/03/04 04:12:05;;;;;;;50.17;14.80;;;;;;;;;;7385563;19;20002;-76
2023/03/04 04:14:31;;;;;;;43.60;15.52;;;;;;;;;;7382561;19;19995;-75
2023/03/04 04:16:56;;;;;;;52.55;15.38;;;;;;;;;;7386660;19;20006;-75
2023/03/04 04:19:21;;;;;;;47.75;16.38;;;;;;;;;;7386373;19;20001;-77
2023/03/04 04:21:47;;;;;;;44.60;15.00;;;;;;;;;;7386693;19;20070;-76
2023/03/04 04:24:13;;;;;;;49.75;13.40;;;;;;;;;;7383712;19;19999;-76
2023/03/04 04:26:39;;;;;;;43.47;14.75;;;;;;;;;;7387144;19;20085;-76
2023/03/04 04:29:04;;;;;;;46.35;16.02;;;;;;;;;;7384474;19;19994;-76
2023/03/04 04:31:29;;;;;;;48.70;15.85;;;;;;;;;;7385034;19;19998;-76
2023/03/04 04:33:55;;;;;;;44.03;15.13;;;;;;;;;;7384223;19;20002;-77
2023/03/04 04:36:20;;;;;;;48.42;15.20;;;;;;;;;;7386707;19;20338;-76
2023/03/04 04:38:45;;;;;;;39.33;15.32;;;;;;;;;;7388473;19;20364;-76
2023/03/04 04:41:20;;;;;;;48.15;15.75;;;;;;;;;;7386577;19;20424;-76
2023/03/04 04:43:46;;;;;;;50.47;15.73;;;;;;;;;;7382250;19;19995;-76
2023/03/04 04:46:11;;;;;;;44.03;15.07;;;;;;;;;;7384407;19;20003;-76
2023/03/04 04:48:37;;;;;;;45.72;15.43;;;;;;;;;;7384943;19;20082;-76
2023/03/04 04:51:02;;;;;;;40.42;14.15;;;;;;;;;;7385975;19;20002;-76
2023/03/04 04:53:27;;;;;;;38.60;15.05;;;;;;;;;;7383803;19;20002;-76
2023/03/04 04:55:53;;;;;;;44.22;15.00;;;;;;;;;;7385922;19;20073;-76
2023/03/04 04:58:18;;;;;;;45.92;14.98;;;;;;;;;;7385327;19;19995;-76
2023/03/04 05:00:43;;;;;;;52.20;15.88;;;;;;;;;;7383633;19;19994;-76
2023/03/04 05:03:09;;;;;;;48.42;16.70;;;;;;;;;;7382926;19;20006;-75
2023/03/04 05:05:34;;;;;;;45.30;15.98;;;;;;;;;;7384787;19;20456;-76
2023/03/04 05:07:59;;;;;;;42.67;15.40;;;;;;;;;;7384352;19;20992;-75
2023/03/04 05:10:25;;;;;;;47.53;15.68;;;;;;;;;;7382996;19;20453;-76
2023/03/04 05:12:50;;;;;;;46.30;15.63;;;;;;;;;;7385872;19;20002;-76
2023/03/04 05:15:15;;;;;;;48.40;17.05;;;;;;;;;;7384979;19;19995;-75
2023/03/04 05:17:41;;;;;;;56.08;17.00;;;;;;;;;;7385011;19;20062;-76
2023/03/04 05:20:07;;;;;;;45.10;15.52;;;;;;;;;;7385042;19;20467;-76
2023/03/04 05:22:33;;;;;;;41.55;17.05;;;;;;;;;;7382866;19;20006;-75
2023/03/04 05:24:58;;;;;;;43.22;14.82;;;;;;;;;;7385468;19;20003;-75
2023/03/04 05:27:23;;;;;;;42.65;15.52;;;;;;;;;;7384835;19;20047;-76
2023/03/04 05:29:49;;;;;;;43.17;15.93;;;;;;;;;;7382933;19;20012;-75
2023/03/04 05:32:14;;;;;;;50.17;16.35;;;;;;;;;;7384522;19;20333;-76
2023/03/04 05:34:39;;;;;;;46.00;15.85;;;;;;;;;;7381847;19;20507;-76
2023/03/04 05:37:05;;;;;;;49.10;15.85;;;;;;;;;;7384520;19;20492;-75
2023/03/04 05:39:30;;;;;;;41.80;16.55;;;;;;;;;;7383722;19;20027;-77
2023/03/04 05:41:55;;;;;;;40.90;15.18;;;;;;;;;;7386386;19;20370;-76
2023/03/04 05:44:21;;;;;;;45.25;16.48;;;;;;;;;;7387552;19;20005;-76
2023/03/04 05:46:46;;;;;;;50.50;17.15;;;;;;;;;;7391515;19;20002;-74
2023/03/04 05:49:11;;;;;;;47.88;17.17;;;;;;;;;;7388759;19;20370;-75
2023/03/04 05:51:37;;;;;;;43.92;16.65;;;;;;;;;;7396143;19;20008;-76
2023/03/04 05:54:02;;;;;;;46.67;17.33;;;;;;;;;;7388736;19;20480;-76
2023/03/04 05:56:29;;;;;;;48.72;18.35;;;;;;;;;;7392184;19;19998;-77
2023/03/04 05:59:00;;;;;;;51.03;17.83;;;;;;;;;;7391100;19;20003;-76
2023/03/04 06:01:25;;;;;;;40.75;17.23;;;;;;;;;;7391935;19;20002;-76
2023/03/04 06:03:51;;;;;;;40.55;15.52;;;;;;;;;;7388092;19;20026;-76
2023/03/04 06:06:17;;;;;;;47.00;17.90;;;;;;;;;;7391606;19;20002;-76
2023/03/04 06:08:42;;;;;;;50.38;17.05;;;;;;;;;;7387329;19;20646;-77
2023/03/04 06:11:07;;;;;;;48.05;17.98;;;;;;;;;;7391294;19;19995;-76
2023/03/04 06:13:33;;;;;;;40.55;15.50;;;;;;;;;;7388802;19;19998;-75
2023/03/04 06:15:59;;;;;;;41.97;16.85;;;;;;;;;;7391933;19;20030;-76
2023/03/04 06:18:26;;;;;;;42.50;16.02;;;;;;;;;;7386937;19;20013;-76
2023/03/04 06:21:00;;;;;;;40.80;17.00;;;;;;;;;;7395487;19;20042;-76
2023/03/04 06:23:26;;;;;;;40.38;16.50;;;;;;;;;;7394207;19;20066;-76
2023/03/04 06:25:56;;;;;;;43.95;17.63;;;;;;;;;;7395736;19;20007;-77
2023/03/04 06:28:23;;;;;;;42.63;17.13;;;;;;;;;;7396315;19;20073;-77
2023/03/04 06:30:51;;;;;;;44.20;16.25;;;;;;;;;;7392252;19;20002;-76
2023/03/04 06:33:16;;;;;;;39.10;18.00;;;;;;;;;;7392728;19;20010;-78
2023/03/04 06:35:41;;;;;;;40.15;15.05;;;;;;;;;;7389048;19;20033;-76
2023/03/04 06:38:07;;;;;;;43.33;16.70;;;;;;;;;;7388011;19;20090;-76
2023/03/04 06:40:32;;;;;;;51.38;17.70;;;;;;;;;;7390615;19;20019;-77
2023/03/04 06:42:57;;;;;;;41.55;16.55;;;;;;;;;;7386521;19;20066;-77
2023/03/04 06:45:23;;;;;;;36.97;15.25;;;;;;;;;;7390736;19;20017;-76
2023/03/04 06:47:48;;;;;;;47.55;17.10;;;;;;;;;;7388443;19;19998;-77
2023/03/04 06:50:13;;;;;;;40.60;16.10;;;;;;;;;;7390024;19;20010;-77
2023/03/04 06:52:39;;;;;;;40.00;16.17;;;;;;;;;;7388480;19;19998;-77
2023/03/04 06:55:05;;;;;;;36.15;15.50;;;;;;;;;;7389842;19;20081;-77
2023/03/04 06:57:31;;;;;;;41.15;15.38;;;;;;;;;;7390226;19;20479;-77
2023/03/04 06:59:56;;;;;;;44.63;16.55;;;;;;;;;;7389028;19;19999;-77
2023/03/04 07:02:22;;;;;;;42.47;16.83;;;;;;;;;;7389193;19;20009;-75
2023/03/04 07:04:47;;;;;;;41.58;17.50;;;;;;;;;;7388295;19;19998;-77
2023/03/04 07:07:12;;;;;;;40.08;15.70;;;;;;;;;;7393341;19;20133;-78
2023/03/04 07:09:38;;;;;;;48.15;17.00;;;;;;;;;;7389142;19;20031;-72
2023/03/04 07:12:04;;;;;;;39.85;16.35;;;;;;;;;;7391668;19;20022;-71
2023/03/04 07:14:29;;;;;;;55.03;16.77;;;;;;;;;;7387783;19;19998;-72
2023/03/04 07:16:55;;;;;;;59.63;17.92;;;;;;;;;;7387872;19;19995;-71
2023/03/04 07:19:20;;;;;;;40.53;15.68;;;;;;;;;;7387391;19;19999;-71
2023/03/04 07:21:46;;;;;;;48.75;14.77;;;;;;;;;;7386086;19;20106;-71
2023/03/04 07:24:11;;;;;;;36.10;11.40;;;;;;;;;;7384203;19;20014;-71
2023/03/04 07:26:37;;;;;;;30.83;12.68;;;;;;;;;;7387992;19;20032;-71
2023/03/04 07:29:03;;;;;;;28.25;12.25;;;;;;;;;;7386327;19;19998;-71
2023/03/04 07:31:31;;;;;;;25.98;11.95;;;;;;;;;;7391784;19;20010;-70
2023/03/04 07:33:59;;;;;;;30.00;11.25;;;;;;;;;;7388723;19;20006;-73
2023/03/04 07:36:25;;;;;;;25.92;10.95;;;;;;;;;;7392294;19;20022;-70
2023/03/04 07:38:53;;;;;;;24.52;10.50;;;;;;;;;;7386381;19;20002;-70
2023/03/04 07:41:19;;;;;;;22.92;11.07;;;;;;;;;;7387447;19;19999;-72
2023/03/04 07:43:44;;;;;;;36.05;10.07;;;;;;;;;;7386005;19;19995;-71
2023/03/04 07:46:10;;;;;;;26.25;10.50;;;;;;;;;;7386996;19;19999;-70
2023/03/04 07:48:36;;;;;;;31.15;10.02;;;;;;;;;;7386426;19;20006;-72
2023/03/04 07:51:15;;;;;;;27.40;10.60;;;;;;;;;;7388474;19;20015;-71
2023/03/04 07:53:42;;;;;;;21.73;9.57;;;;;;;;;;7388804;19;20477;-70
2023/03/04 07:56:11;;;;;;;29.70;9.35;;;;;;;;;;7388140;19;20449;-71
2023/03/04 07:58:37;;;;;;;25.50;9.80;;;;;;;;;;7386196;19;20006;-72
2023/03/04 08:01:09;;;;;;;29.38;9.68;;;;;;;;;;7387325;19;20054;-68
2023/03/04 08:03:34;;;;;;;27.02;10.32;;;;;;;;;;7385793;19;19998;-73
2023/03/04 08:06:02;;;;;;;27.73;9.70;;;;;;;;;;7385446;19;20018;-71
2023/03/04 08:08:28;;;;;;;26.27;9.15;;;;;;;;;;7385102;19;20009;-71
2023/03/04 08:10:53;;;;;;;28.58;10.35;;;;;;;;;;7388793;19;20472;-70
2023/03/04 08:13:18;;;;;;;35.17;9.77;;;;;;;;;;7375812;19;20089;-72
2023/03/04 08:15:44;;;;;;;22.60;9.10;;;;;;;;;;7384395;19;20463;-71
2023/03/04 08:18:09;;;;;;;24.13;9.23;;;;;;;;;;7384289;19;20523;-72
2023/03/04 08:20:34;;;;;;;24.63;9.40;;;;;;;;;;7384330;19;20002;-72
2023/03/04 08:23:00;;;;;;;34.63;10.07;;;;;;;;;;7383314;19;20027;-72
2023/03/04 08:25:25;;;;;;;24.88;10.15;;;;;;;;;;7382326;19;20003;-75
2023/03/04 08:27:50;;;;;;;20.92;9.18;;;;;;;;;;7382063;19;20003;-73
2023/03/04 08:30:16;;;;;;;23.73;9.80;;;;;;;;;;7383624;19;20461;-76
2023/03/04 08:32:41;;;;;;;25.90;9.25;;;;;;;;;;7386109;19;20002;-77
2023/03/04 08:35:06;;;;;;;22.83;8.88;;;;;;;;;;7380911;19;19999;-74
2023/03/04 08:37:32;;;;;;;27.20;9.18;;;;;;;;;;7388095;19;19994;-73
2023/03/04 08:39:57;;;;;;;19.45;8.48;;;;;;;;;;7384609;19;20009;-75
2023/03/04 08:42:23;;;;;;;19.67;8.07;;;;;;;;;;7388881;19;19994;-77
2023/03/04 08:44:49;;;;;;;22.48;8.45;;;;;;;;;;7387738;19;20014;-77
2023/03/04 08:47:14;;;;;;;31.35;8.13;;;;;;;;;;7387645;19;20322;-77
2023/03/04 08:49:40;;;;;;;17.90;8.23;;;;;;;;;;7382771;19;20003;-76
2023/03/04 08:52:05;;;;;;;19.83;8.32;;;;;;;;;;7386807;19;20005;-77
2023/03/04 08:54:31;;;;;;;26.75;8.00;;;;;;;;;;7388442;19;20397;-75
2023/03/04 08:56:56;;;;;;;20.42;7.10;;;;;;;;;;7389857;19;19999;-76
2023/03/04 08:59:21;;;;;;;21.00;7.80;;;;;;;;;;7386536;19;20099;-76
2023/03/04 09:01:47;;;;;;;20.48;6.45;;;;;;;;;;7389509;19;20050;-75
2023/03/04 09:04:12;;;;;;;21.80;7.07;;;;;;;;;;7385671;19;20032;-75
2023/03/04 09:06:37;;;;;;;19.42;8.10;;;;;;;;;;7389774;19;20122;-76
2023/03/04 09:09:03;;;;;;;22.08;7.97;;;;;;;;;;7384079;19;19995;-74
2023/03/04 09:11:29;;;;;;;22.60;7.90;;;;;;;;;;7389094;19;20074;-75
2023/03/04 09:13:54;;;;;;;23.00;6.95;;;;;;;;;;7387422;19;20016;-75
2023/03/04 09:16:20;;;;;;;18.95;7.07;;;;;;;;;;7384498;19;20002;-74
2023/03/04 09:18:45;;;;;;;21.65;8.35;;;;;;;;;;7386936;19;20010;-75
2023/03/04 09:21:11;;;;;;;17.75;7.88;;;;;;;;;;7390781;19;19998;-74
2023/03/04 09:23:37;;;;;;;20.42;7.65;;;;;;;;;;7386523;19;20479;-74
2023/03/04 09:26:21;;;;;;;17.70;7.22;;;;;;;;;;7387330;19;20003;-75
2023/03/04 09:28:51;;;;;;;23.60;6.97;;;;;;;;;;7383382;19;20013;-75
2023/03/04 09:31:17;;;;;;;20.92;7.72;;;;;;;;;;7386030;19;20006;-75
2023/03/04 09:33:43;;;;;;;19.52;7.28;;;;;;;;;;7389682;19;20006;-74
2023/03/04 09:36:11;;;;;;;18.05;6.22;;;;;;;;;;7393056;19;20010;-75
2023/03/04 09:38:37;;;;;;;17.98;6.47;;;;;;;;;;7392214;19;20384;-75
2023/03/04 09:41:07;;;;;;;17.75;6.65;;;;;;;;;;7392640;19;19998;-74
2023/03/04 09:43:33;;;;;;;21.45;6.13;;;;;;;;;;7390595;19;19995;-73
2023/03/04 09:46:02;;;;;;;20.30;6.15;;;;;;;;;;7394059;19;20074;-74
2023/03/04 09:48:31;;;;;;;16.73;6.45;;;;;;;;;;7389928;19;20456;-74
2023/03/04 09:51:05;;;;;;;20.45;6.32;;;;;;;;;;7391813;19;20102;-74
2023/03/04 09:53:42;;;;;;;22.10;6.75;;;;;;;;;;7391278;19;20019;-76
2023/03/04 09:56:10;;;;;;;13.68;5.80;;;;;;;;;;7392148;19;20010;-74
2023/03/04 09:59:01;;;;;;;20.48;5.13;;;;;;;;;;7391292;19;20033;-74
2023/03/04 10:01:32;;;;;;;;;;;;;;;;;;7390264;19;20356;-75
2023/03/04 10:04:05;;;;;;;19.67;6.03;;;;;;;;;;7390585;19;19926;-75
2023/03/04 10:06:30;;;;;;;17.38;5.50;;;;;;;;;;7390285;19;20023;-74
2023/03/04 10:09:01;;;;;;;24.48;6.30;;;;;;;;;;7389514;19;20366;-74
2023/03/04 10:11:32;;;;;;;22.03;7.17;;;;;;;;;;7390021;19;19999;-75
2023/03/04 10:14:16;;;;;;;18.70;6.15;;;;;;;;;;7390398;19;20228;-74
2023/03/04 10:16:50;;;;;;;25.48;5.93;;;;;;;;;;7389697;19;20468;-74
2023/03/04 10:19:37;;;;;;;19.67;5.95;;;;;;;;;;7389751;19;20003;-74
2023/03/04 10:22:16;;;;;;;14.38;4.88;;;;;;;;;;7389555;19;20005;-75
2023/03/04 10:24:41;;;;;;;22.23;5.78;;;;;;;;;;7389820;19;20030;-75
2023/03/04 10:27:12;;;;;;;22.75;7.18;;;;;;;;;;7389613;19;19995;-73
2023/03/04 10:29:37;;;;;;;16.15;6.13;;;;;;;;;;7391379;19;20010;-75
2023/03/04 10:32:03;;;;;;;18.02;7.40;;;;;;;;;;7391572;19;19998;-74
2023/03/04 10:34:28;;;;;;;20.15;4.72;;;;;;;;;;7389628;19;20006;-76
2023/03/04 10:37:02;;;;;;;22.42;6.20;;;;;;;;;;7391204;19;20031;-77
2023/03/04 10:39:37;;;;;;;17.52;6.13;;;;;;;;;;7389707;19;20527;-78
2023/03/04 10:42:22;;;;;;;19.42;5.20;;;;;;;;;;7392066;19;20597;-70
2023/03/04 10:44:56;;;;;;;18.02;5.43;;;;;;;;;;7389200;19;20002;-70
2023/03/04 10:47:24;;;;;;;23.50;5.50;;;;;;;;;;7379750;19;20441;-70
2023/03/04 10:50:19;;;;;;;19.83;6.15;;;;;;;;;;7384556;19;20508;-72
2023/03/04 10:52:48;;;;;;;17.80;5.97;;;;;;;;;;7383694;19;20011;-71
2023/03/04 10:55:26;;;;;;;17.88;6.68;;;;;;;;;;7386283;19;20031;-70
2023/03/04 10:57:54;;;;;;;15.25;5.65;;;;;;;;;;7381825;19;20006;-72
2023/03/04 11:00:30;;;;;;;18.83;6.82;;;;;;;;;;7382083;19;20084;-74
2023/03/04 11:03:28;;;;;;;13.98;5.38;;;;;;;;;;7385696;19;19999;-74
2023/03/04 11:06:15;;;;;;;15.13;5.43;;;;;;;;;;7387291;19;19998;-74
2023/03/04 11:08:42;;;;;;;14.57;5.10;;;;;;;;;;7385537;19;20006;-74
2023/03/04 11:11:33;;;;;;;13.82;5.40;;;;;;;;;;7384956;19;19999;-73
2023/03/04 11:14:02;;;;;;;23.25;5.70;;;;;;;;;;7384016;19;20007;-74
2023/03/04 11:16:30;;;;;;;18.80;5.72;;;;;;;;;;7389478;19;20006;-74
2023/03/04 11:19:02;;;;;;;14.20;5.60;;;;;;;;;;7383236;19;20010;-74
2023/03/04 11:21:30;;;;;;;15.77;5.57;;;;;;;;;;7388851;19;20002;-79
2023/03/04 11:23:57;;;;;;;16.88;5.55;;;;;;;;;;7383987;19;20050;-76
2023/03/04 11:26:38;;;;;;;14.25;5.10;;;;;;;;;;7388005;19;20002;-74
2023/03/04 11:29:13;;;;;;;11.15;5.05;;;;;;;;;;7380047;19;20005;-75
2023/03/04 11:31:47;;;;;;;15.60;5.30;;;;;;;;;;7383381;19;19998;-74
2023/03/04 11:34:21;;;;;;;17.10;5.38;;;;;;;;;;7381834;19;19999;-75
2023/03/04 11:36:53;;;;;;;12.95;5.82;;;;;;;;;;7384373;19;20002;-74
2023/03/04 11:39:31;;;;;;;17.60;5.60;;;;;;;;;;7376904;19;20003;-77
2023/03/04 11:42:15;;;;;;;14.05;4.97;;;;;;;;;;7386075;19;19995;-75
2023/03/04 11:44:40;;;;;;;15.07;4.97;;;;;;;;;;7380770;19;20013;-76
2023/03/04 11:47:46;;;;;;;12.30;4.28;;;;;;;;;;7385280;19;19999;-76
2023/03/04 11:50:26;;;;;;;14.23;4.78;;;;;;;;;;7383694;19;19999;-76
2023/03/04 11:53:01;;;;;;;11.07;4.38;;;;;;;;;;7386268;19;20453;-75
2023/03/04 11:55:32;;;;;;;12.98;5.40;;;;;;;;;;7387668;19;20026;-75
2023/03/04 11:58:03;;;;;;;10.65;4.55;;;;;;;;;;7387576;19;19994;-75
2023/03/04 12:00:31;;;;;;;;;;;;;;;;;;7390054;19;20002;-75
2023/03/04 12:03:25;;;;;;;13.90;5.28;;;;;;;;;;7384438;19;19949;-75
2023/03/04 12:05:57;;;;;;;15.20;5.78;;;;;;;;;;7387270;19;19998;-75
2023/03/04 12:08:53;;;;;;;15.48;4.65;;;;;;;;;;7387201;19;20003;-76
2023/03/04 12:11:32;;;;;;;15.75;4.38;;;;;;;;;;7386551;19;19999;-75
2023/03/04 12:14:40;;;;;;;11.30;4.63;;;;;;;;;;7385765;19;20107;-77
2023/03/04 12:17:17;;;;;;;13.35;4.15;;;;;;;;;;7385830;19;20062;-75
2023/03/04 12:20:13;;;;;;;13.13;4.55;;;;;;;;;;7385381;19;19994;-76
2023/03/04 12:22:50;;;;;;;12.65;4.55;;;;;;;;;;7385497;19;20532;-75
2023/03/04 12:25:34;;;;;;;12.25;4.03;;;;;;;;;;7386484;19;20460;-76
2023/03/04 12:28:32;;;;;;;12.50;4.93;;;;;;;;;;7388151;19;20567;-74
2023/03/04 12:31:19;;;;;;;13.75;4.05;;;;;;;;;;7385936;19;20050;-75
2023/03/04 12:34:00;;;;;;;8.10;3.65;;;;;;;;;;7385112;19;20801;-75
2023/03/04 12:36:55;;;;;;;14.50;4.13;;;;;;;;;;7386383;19;20009;-76
2023/03/04 12:39:46;;;;;;;12.27;5.05;;;;;;;;;;7385426;19;19999;-76
2023/03/04 12:42:36;;;;;;;14.23;5.97;;;;;;;;;;7386018;19;20494;-76
2023/03/04 12:45:12;;;;;;;9.95;4.07;;;;;;;;;;7388466;19;20369;-76
2023/03/04 12:48:03;;;;;;;10.15;4.13;;;;;;;;;;7384055;19;20017;-76
2023/03/04 12:50:54;;;;;;;10.18;4.28;;;;;;;;;;7386224;19;20472;-75
2023/03/04 12:53:29;;;;;;;10.93;3.90;;;;;;;;;;7398567;19;20002;-75
2023/03/04 12:55:57;;;;;;;12.52;4.43;;;;;;;;;;7399938;19;20006;-75
2023/03/04 12:58:25;;;;;;;8.05;3.72;;;;;;;;;;7398212;19;20329;-74
2023/03/04 13:01:38;;;;;;;10.95;4.28;;;;;;;;;;7399934;19;20036;-75
2023/03/04 13:04:15;;;;;;;9.32;3.95;;;;;;;;;;7396852;19;20003;-74
2023/03/04 13:06:59;;;;;;;10.68;4.30;;;;;;;;;;7398877;19;20011;-75
2023/03/04 13:09:27;;;;;;;11.45;4.20;;;;;;;;;;7398486;19;20638;-75
2023/03/04 13:12:14;;;;;;;13.93;4.68;;;;;;;;;;7398679;19;19999;-74
2023/03/04 13:14:40;;;;;;;8.80;3.65;;;;;;;;;;7398518;19;20034;-76
2023/03/04 13:17:42;;;;;;;9.40;3.72;;;;;;;;;;7397885;19;20745;-76
2023/03/04 13:20:19;;;;;;;9.82;3.55;;;;;;;;;;7392291;19;20007;-78
2023/03/04 13:22:58;;;;;;;8.15;3.28;;;;;;;;;;7400551;19;20460;-76
2023/03/04 13:25:34;;;;;;;9.23;3.80;;;;;;;;;;7405009;19;20448;-74
2023/03/04 13:28:01;;;;;;;12.98;4.15;;;;;;;;;;7384040;19;20014;-71
2023/03/04 13:30:29;;;;;;;7.22;3.58;;;;;;;;;;7390301;19;20472;-72
2023/03/04 13:32:55;;;;;;;8.38;3.60;;;;;;;;;;7390856;19;20006;-72
2023/03/04 13:35:48;;;;;;;8.43;3.65;;;;;;;;;;7394017;19;20479;-71
2023/03/04 13:38:23;;;;;;;10.38;3.90;;;;;;;;;;7387315;19;20436;-72
2023/03/04 13:41:03;;;;;;;9.18;3.33;;;;;;;;;;7389730;19;20002;-72
2023/03/04 13:43:38;;;;;;;12.05;3.90;;;;;;;;;;7386541;19;20014;-75
2023/03/04 13:46:19;;;;;;;8.35;3.03;;;;;;;;;;7395971;19;20013;-75
2023/03/04 13:48:50;;;;;;;7.97;3.70;;;;;;;;;;7392866;19;20122;-75
2023/03/04 13:51:24;;;;;;;11.20;3.92;;;;;;;;;;7390529;19;20368;-75
2023/03/04 13:54:11;;;;;;;9.75;3.95;;;;;;;;;;7391729;19;20007;-75
2023/03/04 13:56:46;;;;;;;11.40;4.38;;;;;;;;;;7394536;19;20006;-76
2023/03/04 13:59:20;;;;;;;9.15;3.80;;;;;;;;;;7389191;19;20469;-75
2023/03/04 14:01:45;;;;;;;9.50;4.30;;;;;;;;;;7394048;19;20002;-76
2023/03/04 14:04:21;;;;;;;13.57;4.38;;;;;;;;;;7385299;19;20013;-75
2023/03/04 14:06:57;;;;;;;11.48;4.05;;;;;;;;;;7390337;19;20670;-74
2023/03/04 14:09:23;;;;;;;10.65;4.60;;;;;;;;;;7383099;19;20412;-75
2023/03/04 14:11:55;;;;;;;12.90;4.63;;;;;;;;;;7386029;19;20558;-74
2023/03/04 14:14:27;;;;;;;12.18;5.07;;;;;;;;;;7380752;19;20017;-73
2023/03/04 14:16:58;;;;;;;11.73;5.20;;;;;;;;;;7386934;19;20089;-75
2023/03/04 14:19:28;;;;;;;11.25;4.28;;;;;;;;;;7385155;19;20071;-75
2023/03/04 14:21:54;;;;;;;11.25;4.55;;;;;;;;;;7385367;19;20360;-74
2023/03/04 14:24:21;;;;;;;13.65;4.82;;;;;;;;;;7383599;19;20022;-75
2023/03/04 14:26:46;;;;;;;12.50;5.07;;;;;;;;;;7384008;19;20002;-75
2023/03/04 14:29:22;;;;;;;10.40;4.78;;;;;;;;;;7385782;19;20478;-74
2023/03/04 14:31:47;;;;;;;10.98;4.13;;;;;;;;;;7388240;19;20512;-74
2023/03/04 14:34:23;;;;;;;16.70;4.95;;;;;;;;;;7385643;19;20014;-74
2023/03/04 14:36:49;;;;;;;10.27;4.40;;;;;;;;;;7389350;19;20113;-72